Time;durP1;ratioP1;P1;durP2;ratioP2;P2;SDS_P1;SDS_P2;PMS_P1;PMS_P2;Temp;Humidity;BMP_temperature;BMP_pressure;BME280_temperature;BME280_humidity;BME280_pressure;Samples;Min_cycle;Max_cycle;Signal;HPM_P1;HPM_P2
2023/07/06 00:01:25;;;;;;;5.63;2.38;;;20.40;88.10;;;;;;5094877;28;20048;-63
2023/07/06 00:03:51;;;;;;;4.68;2.17;;;20.50;90.40;;;;;;5085400;28;20084;-61
2023/07/06 00:06:17;;;;;;;5.20;2.25;;;20.50;90.40;;;;;;5109987;27;20048;-64
2023/07/06 00:08:43;;;;;;;4.70;2.20;;;20.60;90.50;;;;;;5114254;28;20036;-60
2023/07/06 00:11:09;;;;;;;5.68;1.98;;;20.40;90.40;;;;;;5113576;28;20047;-62
2023/07/06 00:13:36;;;;;;;5.20;2.10;;;20.60;87.70;;;;;;5113978;28;20058;-63
2023/07/06 00:16:02;;;;;;;4.82;1.95;;;20.40;90.40;;;;;;5112107;28;20104;-62
2023/07/06 00:18:28;;;;;;;4.88;1.67;;;20.50;90.40;;;;;;5113277;28;20110;-65
2023/07/06 00:20:54;;;;;;;3.70;1.70;;;20.40;90.40;;;;;;5108536;28;20176;-60
2023/07/06 00:23:21;;;;;;;4.57;1.80;;;20.60;90.40;;;;;;5093704;28;20162;-61
2023/07/06 00:25:48;;;;;;;7.97;2.25;;;20.50;90.40;;;;;;5107424;28;20040;-60
2023/07/06 00:28:14;;;;;;;4.22;1.90;;;20.60;90.50;;;;;;5119060;27;20061;-63
2023/07/06 00:33:11;;;;;;;4.13;2.00;;;20.50;90.00;;;;;;5113162;28;20507;-61
2023/07/06 00:35:39;;;;;;;6.40;1.80;;;20.70;90.50;;;;;;5112926;28;20051;-62
2023/07/06 00:38:09;;;;;;;5.13;2.22;;;20.50;90.40;;;;;;5093993;28;20140;-62
2023/07/06 00:40:37;;;;;;;6.07;2.20;;;20.40;90.40;;;;;;5092885;28;20509;-62
2023/07/06 00:43:03;;;;;;;3.88;1.95;;;20.60;90.50;;;;;;5106542;28;20039;-66
2023/07/06 00:45:29;;;;;;;5.05;2.30;;;20.30;90.30;;;;;;5111618;28;20100;-66
2023/07/06 00:47:56;;;;;;;4.38;2.20;;;20.50;90.50;;;;;;5112124;28;20171;-66
2023/07/06 00:50:24;;;;;;;4.85;2.20;;;20.40;90.40;;;;;;5111221;28;20511;-61
2023/07/06 00:52:52;;;;;;;5.47;2.40;;;20.50;90.50;;;;;;5111827;28;20106;-64
2023/07/06 00:55:19;;;;;;;5.30;2.28;;;;;;;;;;5110686;28;20559;-60
2023/07/06 00:57:47;;;;;;;4.75;2.20;;;20.40;90.40;;;;;;5113529;28;20040;-61
2023/07/06 01:00:20;;;;;;;4.57;2.35;;;20.40;90.40;;;;;;5113016;28;20043;-62
2023/07/06 01:02:46;;;;;;;4.80;2.35;;;20.40;90.40;;;;;;5113522;28;20051;-61
2023/07/06 01:05:14;;;;;;;5.85;2.70;;;;;;;;;;5104555;28;20086;-61
2023/07/06 01:07:41;;;;;;;5.00;2.08;;;20.60;90.50;;;;;;5112780;28;20158;-62
2023/07/06 01:10:09;;;;;;;6.10;2.33;;;20.20;90.50;;;;;;5095396;28;20047;-61
2023/07/06 01:12:34;;;;;;;8.73;2.75;;;20.60;90.50;;;;;;5113188;28;20118;-61
2023/07/06 01:15:00;;;;;;;4.93;2.15;;;20.50;90.50;;;;;;5111754;28;20146;-63
2023/07/06 01:17:33;;;;;;;5.03;2.10;;;20.20;90.40;;;;;;5111187;28;20035;-61
2023/07/06 01:20:14;;;;;;;5.47;2.58;;;20.30;90.30;;;;;;5128644;28;20397;-61
2023/07/06 01:23:07;;;;;;;5.75;2.55;;;20.50;90.40;;;;;;5118370;28;20036;-60
2023/07/06 01:26:02;;;;;;;5.75;2.50;;;20.20;88.70;;;;;;5108119;28;20052;-61
2023/07/06 01:29:06;;;;;;;5.90;2.78;;;20.20;86.70;;;;;;5103041;28;20434;-63
2023/07/06 01:31:52;;;;;;;6.05;2.53;;;20.30;90.40;;;;;;5090649;28;20058;-62
2023/07/06 01:34:47;;;;;;;7.25;2.55;;;20.30;86.80;;;;;;5086825;28;20085;-62
2023/07/06 01:37:19;;;;;;;5.95;2.80;;;20.40;88.40;;;;;;5085036;28;20147;-65
2023/07/06 01:39:45;;;;;;;5.68;2.63;;;20.40;90.40;;;;;;5077426;28;20036;-63
2023/07/06 01:42:13;;;;;;;5.43;2.80;;;20.40;90.40;;;;;;5112593;28;20395;-62
2023/07/06 01:44:47;;;;;;;6.18;2.30;;;20.40;90.50;;;;;;5112928;28;20377;-62
2023/07/06 01:47:14;;;;;;;5.00;2.50;;;20.30;90.50;;;;;;5105494;28;20043;-64
2023/07/06 01:49:40;;;;;;;5.60;2.80;;;20.30;90.40;;;;;;5111069;28;20040;-63
2023/07/06 01:53:03;;;;;;;5.35;2.75;;;20.40;90.40;;;;;;5111631;28;20096;-61
2023/07/06 01:55:57;;;;;;;6.28;3.25;;;20.20;90.40;;;;;;5030024;28;20065;-62
2023/07/06 01:59:04;;;;;;;4.68;2.50;;;20.20;90.40;;;;;;5034151;28;20614;-63
2023/07/06 02:01:35;;;;;;;5.40;2.83;;;20.20;88.30;;;;;;4952037;28;20153;-63
2023/07/06 02:04:03;;;;;;;5.53;3.08;;;20.20;90.40;;;;;;4952826;28;20047;-60
2023/07/06 02:06:29;;;;;;;6.57;2.72;;;20.40;90.50;;;;;;4976514;28;20055;-64
2023/07/06 02:08:55;;;;;;;5.20;2.75;;;20.40;90.50;;;;;;4960216;28;20448;-62
2023/07/06 02:11:24;;;;;;;5.60;2.75;;;20.30;90.50;;;;;;4976474;28;20043;-60
2023/07/06 02:13:50;;;;;;;5.53;2.75;;;20.30;88.20;;;;;;4974707;28;20065;-63
2023/07/06 02:16:16;;;;;;;5.57;2.78;;;20.30;90.60;;;;;;4974625;28;20537;-61
2023/07/06 02:18:42;;;;;;;6.30;2.58;;;20.20;90.50;;;;;;4978060;28;20159;-61
2023/07/06 02:21:09;;;;;;;5.63;2.63;;;20.40;90.50;;;;;;4974121;28;20065;-61
2023/07/06 02:23:34;;;;;;;4.95;2.47;;;20.30;90.50;;;;;;4974318;28;20043;-61
2023/07/06 02:26:00;;;;;;;5.85;2.97;;;20.40;90.60;;;;;;4989942;28;20104;-64
2023/07/06 02:28:26;;;;;;;6.50;2.88;;;;;;;;;;5012783;28;20058;-61
2023/07/06 02:30:52;;;;;;;5.20;2.67;;;20.40;90.60;;;;;;5013337;28;20089;-61
2023/07/06 02:33:18;;;;;;;6.78;2.97;;;20.30;90.50;;;;;;5091052;28;20569;-60
2023/07/06 02:35:45;;;;;;;5.85;2.67;;;20.30;90.60;;;;;;5095929;28;20040;-61
2023/07/06 02:38:16;;;;;;;6.35;2.78;;;20.30;90.00;;;;;;5091175;28;20523;-61
2023/07/06 02:40:42;;;;;;;7.10;2.67;;;20.30;90.50;;;;;;5114126;28;20083;-60
2023/07/06 02:43:08;;;;;;;4.97;2.75;;;20.20;90.70;;;;;;5097668;28;20082;-60
2023/07/06 02:45:34;;;;;;;5.40;2.70;;;20.10;90.50;;;;;;5115616;28;20039;-60
2023/07/06 02:48:00;;;;;;;6.82;2.75;;;20.30;90.60;;;;;;5113897;28;20067;-60
2023/07/06 02:50:27;;;;;;;5.38;2.55;;;20.30;90.60;;;;;;5115350;28;20078;-60
2023/07/06 02:52:52;;;;;;;5.30;2.80;;;20.30;89.20;;;;;;5115726;28;20115;-61
2023/07/06 02:55:18;;;;;;;6.05;2.80;;;20.40;90.60;;;;;;5114363;28;20078;-60
2023/07/06 02:57:44;;;;;;;5.50;2.70;;;20.50;90.60;;;;;;5113761;28;20052;-61
2023/07/06 03:00:13;;;;;;;6.30;2.83;;;20.30;90.40;;;;;;5115075;28;20039;-61
2023/07/06 03:02:39;;;;;;;5.75;2.60;;;20.30;90.60;;;;;;5115672;28;20082;-61
2023/07/06 03:05:05;;;;;;;7.65;3.17;;;20.30;90.60;;;;;;5115749;28;20423;-60
2023/07/06 03:07:34;;;;;;;6.07;2.55;;;20.30;90.50;;;;;;5114079;28;20047;-64
2023/07/06 03:10:03;;;;;;;7.40;2.90;;;20.40;90.70;;;;;;5115012;28;20374;-60
2023/07/06 03:12:33;;;;;;;4.93;2.60;;;20.30;90.70;;;;;;5115543;28;20051;-63
2023/07/06 03:15:05;;;;;;;6.53;3.05;;;20.50;90.60;;;;;;5114654;28;20043;-64
2023/07/06 03:17:32;;;;;;;7.00;2.78;;;20.50;90.60;;;;;;5113355;28;20139;-62
2023/07/06 03:19:57;;;;;;;7.47;3.08;;;20.40;90.60;;;;;;5098534;28;20099;-65
2023/07/06 03:22:23;;;;;;;5.80;2.97;;;20.40;90.50;;;;;;5094755;28;20052;-64
2023/07/06 03:24:49;;;;;;;6.15;2.83;;;20.40;90.50;;;;;;5094173;28;20044;-61
2023/07/06 03:27:15;;;;;;;6.65;2.80;;;20.50;90.60;;;;;;5076528;28;20099;-62
2023/07/06 03:29:41;;;;;;;5.60;2.90;;;20.40;90.80;;;;;;5102919;28;20054;-61
2023/07/06 03:32:06;;;;;;;5.95;2.90;;;20.20;90.60;;;;;;5094392;28;20125;-60
2023/07/06 03:34:33;;;;;;;5.30;2.60;;;20.30;90.60;;;;;;5093971;28;20131;-60
2023/07/06 03:36:59;;;;;;;5.50;2.50;;;20.40;90.00;;;;;;5110151;28;20052;-61
2023/07/06 03:39:25;;;;;;;5.22;2.80;;;20.50;90.70;;;;;;5112160;27;20508;-61
2023/07/06 03:41:51;;;;;;;6.60;2.63;;;20.40;90.60;;;;;;5130370;27;20043;-61
2023/07/06 03:44:21;;;;;;;6.40;2.90;;;20.30;90.60;;;;;;5115065;28;20039;-61
2023/07/06 03:46:47;;;;;;;5.05;2.72;;;20.50;90.70;;;;;;5094575;28;20078;-60
2023/07/06 03:49:13;;;;;;;5.07;2.70;;;20.40;90.60;;;;;;5108422;28;20035;-60
2023/07/06 03:51:41;;;;;;;6.38;2.90;;;;;;;;;;5111704;28;20138;-61
2023/07/06 03:54:07;;;;;;;6.25;2.80;;;20.60;90.70;;;;;;5114037;28;20073;-60
2023/07/06 03:56:33;;;;;;;4.95;2.70;;;20.50;90.60;;;;;;5114006;28;20126;-65
2023/07/06 03:58:59;;;;;;;5.45;2.95;;;20.60;90.70;;;;;;5111595;28;20388;-61
2023/07/06 04:01:25;;;;;;;5.90;2.85;;;20.40;87.90;;;;;;5095232;28;20127;-62
2023/07/06 04:03:52;;;;;;;5.40;2.50;;;20.40;90.60;;;;;;5114599;28;20089;-60
2023/07/06 04:06:18;;;;;;;5.82;2.80;;;20.40;90.60;;;;;;5114188;28;20088;-62
2023/07/06 04:08:44;;;;;;;5.70;2.30;;;20.50;90.70;;;;;;5112197;28;20039;-60
2023/07/06 04:11:10;;;;;;;5.35;2.53;;;;;;;;;;5113994;28;20143;-64
2023/07/06 04:13:36;;;;;;;4.50;2.47;;;;;;;;;;5112306;28;20064;-62
2023/07/06 04:16:02;;;;;;;5.80;2.58;;;20.50;90.60;;;;;;5113925;28;20096;-62
2023/07/06 04:18:28;;;;;;;6.35;2.65;;;20.40;90.60;;;;;;5128609;27;20474;-61
2023/07/06 04:20:54;;;;;;;5.63;2.55;;;20.40;90.60;;;;;;5113097;28;20485;-64
2023/07/06 04:23:20;;;;;;;6.45;2.83;;;20.50;90.60;;;;;;5112642;27;20404;-61
2023/07/06 04:25:46;;;;;;;7.88;3.00;;;20.40;88.50;;;;;;5112915;27;20089;-61
2023/07/06 04:28:12;;;;;;;5.63;2.95;;;20.50;90.60;;;;;;5112684;28;20039;-64
2023/07/06 04:30:40;;;;;;;5.40;2.55;;;20.60;90.60;;;;;;5113280;28;20047;-61
2023/07/06 04:33:06;;;;;;;5.55;2.60;;;20.60;88.00;;;;;;5111894;28;20065;-63
2023/07/06 04:35:32;;;;;;;5.35;2.85;;;20.80;90.60;;;;;;5111723;28;20066;-61
2023/07/06 04:37:59;;;;;;;6.70;3.00;;;20.60;90.50;;;;;;5092907;28;20123;-60
2023/07/06 04:40:26;;;;;;;6.20;2.47;;;20.70;90.50;;;;;;5092923;28;20048;-61
2023/07/06 04:42:52;;;;;;;5.20;2.65;;;20.70;90.10;;;;;;5102844;28;20050;-61
2023/07/06 04:45:18;;;;;;;5.20;2.75;;;20.70;90.40;;;;;;5111480;28;20075;-60
2023/07/06 04:47:44;;;;;;;5.15;2.50;;;20.80;90.40;;;;;;5113134;28;20044;-61
2023/07/06 04:50:12;;;;;;;4.43;2.22;;;20.80;90.40;;;;;;5113288;28;20043;-60
2023/07/06 04:52:38;;;;;;;5.88;2.53;;;20.80;90.40;;;;;;5113252;28;20044;-60
2023/07/06 04:55:07;;;;;;;4.95;2.40;;;20.80;90.40;;;;;;5109247;28;20066;-62
2023/07/06 04:57:33;;;;;;;5.03;2.50;;;20.80;90.40;;;;;;5113289;28;20035;-61
2023/07/06 05:00:01;;;;;;;5.60;2.58;;;20.90;90.40;;;;;;5113294;28;20049;-60
2023/07/06 05:02:30;;;;;;;8.23;3.00;;;21.00;90.40;;;;;;5112234;28;20039;-63
2023/07/06 05:05:00;;;;;;;4.25;2.47;;;20.90;90.30;;;;;;5111544;28;20406;-63
2023/07/06 05:07:26;;;;;;;6.63;2.80;;;21.00;90.30;;;;;;5112746;28;20126;-62
2023/07/06 05:09:52;;;;;;;6.03;2.75;;;;;;;;;;5108586;28;20040;-60
2023/07/06 05:12:18;;;;;;;4.25;2.50;;;21.00;90.30;;;;;;5078920;28;20051;-62
2023/07/06 05:14:44;;;;;;;5.13;2.70;;;21.10;90.30;;;;;;5110156;28;20032;-61
2023/07/06 05:17:10;;;;;;;4.63;2.20;;;21.00;90.20;;;;;;5111454;28;20430;-61
2023/07/06 05:19:36;;;;;;;6.18;2.92;;;20.90;90.20;;;;;;5112802;28;20199;-61
2023/07/06 05:22:02;;;;;;;5.07;2.50;;;21.00;90.20;;;;;;5111795;28;20039;-61
2023/07/06 05:24:28;;;;;;;5.45;2.50;;;21.10;90.30;;;;;;5110457;28;20172;-61
2023/07/06 05:26:54;;;;;;;6.57;2.72;;;20.90;90.20;;;;;;5107913;28;20165;-64
2023/07/06 05:29:20;;;;;;;5.68;2.78;;;21.10;90.30;;;;;;5092413;28;20119;-66
2023/07/06 05:31:46;;;;;;;5.43;2.75;;;21.00;90.30;;;;;;5092573;28;20040;-61
2023/07/06 05:34:12;;;;;;;5.10;2.50;;;;;;;;;;5102001;28;20443;-61
2023/07/06 05:36:38;;;;;;;5.25;2.45;;;21.10;90.30;;;;;;5092424;28;20048;-61
2023/07/06 05:39:05;;;;;;;5.65;2.60;;;21.00;89.10;;;;;;5097038;28;20094;-61
2023/07/06 05:41:30;;;;;;;5.05;2.75;;;21.10;90.30;;;;;;5106258;27;20414;-60
2023/07/06 05:43:56;;;;;;;6.15;2.97;;;21.00;90.30;;;;;;5119396;27;20089;-66
2023/07/06 05:46:23;;;;;;;5.78;2.47;;;21.00;90.30;;;;;;5113812;27;20044;-61
2023/07/06 05:48:50;;;;;;;6.20;2.65;;;21.20;90.20;;;;;;5115983;28;20408;-65
2023/07/06 05:51:16;;;;;;;5.82;2.80;;;21.30;90.20;;;;;;5116688;28;20449;-60
2023/07/06 05:53:41;;;;;;;5.55;2.58;;;21.30;90.10;;;;;;5116412;28;20039;-62
2023/07/06 05:56:08;;;;;;;5.38;2.90;;;21.30;90.10;;;;;;5114807;28;20055;-61
2023/07/06 05:58:34;;;;;;;5.45;2.80;;;21.50;90.10;;;;;;5106840;28;20043;-64
2023/07/06 06:01:00;;;;;;;6.70;2.92;;;21.50;89.80;;;;;;5111551;28;20048;-66
2023/07/06 06:03:26;;;;;;;4.63;2.63;;;21.50;89.90;;;;;;5096093;28;20482;-65
2023/07/06 06:05:53;;;;;;;5.65;2.55;;;21.70;86.20;;;;;;5107166;28;20083;-65
2023/07/06 06:08:19;;;;;;;6.28;3.05;;;21.70;89.60;;;;;;5115703;28;20051;-60
2023/07/06 06:10:45;;;;;;;6.13;2.50;;;21.90;89.50;;;;;;5116507;28;20059;-61
2023/07/06 06:13:11;;;;;;;6.07;2.78;;;;;;;;;;5115734;28;20481;-66
2023/07/06 06:15:37;;;;;;;6.35;3.25;;;22.20;89.00;;;;;;5115423;28;20362;-66
2023/07/06 06:18:03;;;;;;;6.43;3.00;;;22.20;88.60;;;;;;5108341;27;20134;-66
2023/07/06 06:20:30;;;;;;;6.82;3.08;;;22.30;88.40;;;;;;5113684;28;20093;-66
2023/07/06 06:22:57;;;;;;;6.40;2.70;;;22.50;88.30;;;;;;5115617;28;20040;-67
2023/07/06 06:25:24;;;;;;;6.53;2.88;;;22.70;88.00;;;;;;5114494;28;20052;-59
2023/07/06 06:27:49;;;;;;;6.10;2.60;;;22.60;87.80;;;;;;5096553;28;20039;-65
2023/07/06 06:30:15;;;;;;;6.85;3.05;;;22.70;85.20;;;;;;5114485;28;20051;-62
2023/07/06 06:32:41;;;;;;;5.85;2.97;;;22.90;87.60;;;;;;5114903;28;20047;-65
2023/07/06 06:35:24;;;;;;;5.65;2.88;;;22.70;85.00;;;;;;5109880;28;20101;-61
2023/07/06 06:37:50;;;;;;;6.93;2.63;;;22.80;87.00;;;;;;5110807;28;20044;-66
2023/07/06 06:40:16;;;;;;;5.53;2.70;;;23.10;87.00;;;;;;5114900;28;20044;-62
2023/07/06 06:42:42;;;;;;;10.52;2.80;;;23.10;86.80;;;;;;5096642;28;20054;-61
2023/07/06 06:45:08;;;;;;;7.07;3.28;;;23.10;86.50;;;;;;5115682;28;20047;-65
2023/07/06 06:47:34;;;;;;;8.10;3.30;;;23.30;86.60;;;;;;5112436;28;20565;-67
2023/07/06 06:50:00;;;;;;;6.18;3.08;;;23.50;86.60;;;;;;5113740;28;20040;-68
2023/07/06 06:52:26;;;;;;;7.10;2.83;;;23.50;86.90;;;;;;5105896;28;20097;-66
2023/07/06 06:54:53;;;;;;;6.45;3.45;;;23.60;84.20;;;;;;5094798;28;20442;-67
2023/07/06 06:57:22;;;;;;;6.80;3.00;;;23.70;84.10;;;;;;5103444;27;20040;-66
2023/07/06 06:59:48;;;;;;;7.80;3.33;;;23.50;83.80;;;;;;5115284;28;20040;-67
2023/07/06 07:02:14;;;;;;;6.28;2.78;;;23.50;83.30;;;;;;5115085;28;20374;-66
2023/07/06 07:04:40;;;;;;;7.55;2.90;;;23.60;83.60;;;;;;5115057;28;20474;-66
2023/07/06 07:07:06;;;;;;;5.57;2.53;;;23.80;86.30;;;;;;5113142;28;20092;-66
2023/07/06 07:09:32;;;;;;;7.72;2.92;;;23.80;85.90;;;;;;5104771;28;20115;-66
2023/07/06 07:11:58;;;;;;;9.27;3.13;;;23.80;83.30;;;;;;5108780;27;20091;-62
2023/07/06 07:14:24;;;;;;;6.55;3.20;;;23.60;85.70;;;;;;5114520;28;20552;-66
2023/07/06 07:16:50;;;;;;;8.05;3.15;;;23.50;85.60;;;;;;5114354;28;20115;-65
2023/07/06 07:19:16;;;;;;;8.73;3.30;;;24.10;86.20;;;;;;5113147;28;20400;-67
2023/07/06 07:21:41;;;;;;;9.55;3.30;;;23.50;82.80;;;;;;5114158;28;20047;-66
2023/07/06 07:24:08;;;;;;;8.65;3.55;;;23.70;82.90;;;;;;5114485;27;20545;-66
2023/07/06 07:26:34;;;;;;;9.30;3.70;;;24.00;83.10;;;;;;5109098;28;20050;-67
2023/07/06 07:29:02;;;;;;;10.60;3.90;;;23.70;83.00;;;;;;5113485;28;20040;-66
2023/07/06 07:31:28;;;;;;;9.00;4.07;;;24.00;83.30;;;;;;5111529;28;20101;-65
2023/07/06 07:33:54;;;;;;;9.82;4.10;;;23.80;83.00;;;;;;5094842;28;20055;-67
2023/07/06 07:36:20;;;;;;;9.98;4.10;;;23.80;86.40;;;;;;5116499;27;20094;-67
2023/07/06 07:38:47;;;;;;;8.93;3.70;;;23.70;83.10;;;;;;5101935;28;20067;-66
2023/07/06 07:41:13;;;;;;;8.77;3.90;;;23.80;85.60;;;;;;5101010;27;20051;-65
2023/07/06 07:43:42;;;;;;;11.25;3.90;;;23.90;83.10;;;;;;5101732;28;20059;-66
2023/07/06 07:46:10;;;;;;;9.55;4.10;;;24.00;82.20;;;;;;5105373;28;20100;-66
2023/07/06 07:48:38;;;;;;;10.50;4.55;;;24.10;83.20;;;;;;5113503;28;20040;-66
2023/07/06 07:51:08;;;;;;;8.23;3.60;;;24.10;82.40;;;;;;5111548;28;20491;-65
2023/07/06 07:53:35;;;;;;;14.07;4.13;;;24.20;81.50;;;;;;5113508;28;20525;-66
2023/07/06 07:56:01;;;;;;;9.07;3.63;;;23.90;82.70;;;;;;5113132;28;20492;-66
2023/07/06 07:58:27;;;;;;;8.07;3.70;;;24.20;82.50;;;;;;5114027;28;20035;-66
2023/07/06 08:00:56;;;;;;;9.45;4.57;;;24.20;82.50;;;;;;5100951;28;20486;-67
2023/07/06 08:03:24;;;;;;;9.27;3.75;;;24.60;82.40;;;;;;5109539;28;20439;-65
2023/07/06 08:05:54;;;;;;;9.15;4.40;;;24.40;82.20;;;;;;5096683;28;20048;-68
2023/07/06 08:08:22;;;;;;;10.48;4.07;;;24.30;82.40;;;;;;5113243;28;20044;-66
2023/07/06 08:10:49;;;;;;;7.15;3.53;;;24.60;82.10;;;;;;5113164;28;20044;-65
2023/07/06 08:13:15;;;;;;;12.02;4.35;;;24.40;81.80;;;;;;5112766;28;20587;-62
2023/07/06 08:15:44;;;;;;;10.27;4.13;;;24.60;84.00;;;;;;5111846;28;20408;-61
2023/07/06 08:18:10;;;;;;;11.13;3.88;;;24.50;81.40;;;;;;5098848;28;20097;-63
2023/07/06 08:20:36;;;;;;;8.52;3.35;;;24.50;81.30;;;;;;5108435;28;20043;-68
2023/07/06 08:23:08;;;;;;;8.07;3.47;;;24.40;81.10;;;;;;5112903;28;20070;-63
2023/07/06 08:25:41;;;;;;;11.35;3.40;;;24.50;80.80;;;;;;5113429;28;20049;-61
2023/07/06 08:28:08;;;;;;;7.93;3.30;;;24.60;80.80;;;;;;5112078;28;20114;-62
2023/07/06 08:30:34;;;;;;;8.35;3.50;;;24.70;81.00;;;;;;5113628;28;20043;-60
2023/07/06 08:33:00;;;;;;;9.40;3.47;;;24.30;80.70;;;;;;5112177;28;20060;-61
2023/07/06 08:35:30;;;;;;;8.88;3.08;;;24.40;79.80;;;;;;5107413;28;20051;-62
2023/07/06 08:37:56;;;;;;;9.23;3.30;;;24.60;82.40;;;;;;5112284;28;20059;-61
2023/07/06 08:40:28;;;;;;;8.23;3.00;;;24.60;79.90;;;;;;5113546;28;20051;-63
2023/07/06 08:42:56;;;;;;;7.35;2.90;;;24.60;79.80;;;;;;5128074;27;20039;-64
2023/07/06 08:45:30;;;;;;;6.30;2.60;;;24.70;79.70;;;;;;5079623;28;20035;-63
2023/07/06 08:47:56;;;;;;;7.20;2.78;;;24.60;79.70;;;;;;5114034;27;20463;-65
2023/07/06 08:50:28;;;;;;;7.05;2.90;;;24.30;82.10;;;;;;5110122;28;20035;-67
2023/07/06 08:52:56;;;;;;;8.07;2.72;;;24.50;78.20;;;;;;5105224;28;20085;-63
2023/07/06 08:55:22;;;;;;;7.90;2.97;;;24.50;79.10;;;;;;5102699;28;20054;-64
2023/07/06 08:57:49;;;;;;;10.07;2.78;;;24.30;79.40;;;;;;5101843;28;20044;-60
2023/07/06 09:00:25;;;;;;;5.70;2.55;;;24.10;79.60;;;;;;5103269;28;20119;-62
2023/07/06 09:03:03;;;;;;;6.88;2.70;;;24.00;82.10;;;;;;5105619;28;20397;-66
2023/07/06 09:05:32;;;;;;;7.63;2.70;;;24.00;82.20;;;;;;5101699;28;20121;-63
2023/07/06 09:07:58;;;;;;;6.97;2.55;;;24.10;79.30;;;;;;5077735;28;20401;-62
2023/07/06 09:10:28;;;;;;;5.95;2.40;;;24.10;79.50;;;;;;5092658;28;20044;-61
2023/07/06 09:12:56;;;;;;;6.07;2.38;;;24.10;80.00;;;;;;5077868;28;20043;-63
2023/07/06 09:15:30;;;;;;;4.95;2.38;;;24.10;82.90;;;;;;5096957;28;20107;-64
2023/07/06 09:17:59;;;;;;;8.25;2.78;;;24.10;80.00;;;;;;5095267;28;20070;-70
2023/07/06 09:20:26;;;;;;;5.97;2.53;;;24.00;79.40;;;;;;5088864;28;20047;-69
2023/07/06 09:22:52;;;;;;;5.50;2.15;;;24.20;81.80;;;;;;5095649;28;20040;-65
2023/07/06 09:25:25;;;;;;;7.13;2.70;;;24.30;78.90;;;;;;5088655;28;20434;-66
2023/07/06 09:27:51;;;;;;;6.55;2.22;;;24.30;79.20;;;;;;5078101;28;20044;-66
2023/07/06 09:30:29;;;;;;;6.78;2.60;;;24.20;82.00;;;;;;5098015;28;20104;-66
2023/07/06 09:33:04;;;;;;;7.18;2.20;;;24.20;82.40;;;;;;5095382;28;20530;-61
2023/07/06 09:35:30;;;;;;;5.88;2.42;;;24.00;77.90;;;;;;5093246;28;20052;-66
2023/07/06 09:37:56;;;;;;;7.43;2.45;;;24.00;81.70;;;;;;5094392;28;20098;-60
2023/07/06 09:40:28;;;;;;;6.00;2.30;;;24.20;79.20;;;;;;5095309;28;20101;-61
2023/07/06 09:42:54;;;;;;;5.47;2.10;;;24.00;79.10;;;;;;5083352;28;20087;-68
2023/07/06 09:45:27;;;;;;;5.05;2.20;;;23.70;81.90;;;;;;5092663;28;20511;-69
2023/07/06 09:47:58;;;;;;;8.15;2.42;;;23.60;82.10;;;;;;5094414;28;20048;-68
2023/07/06 09:50:32;;;;;;;7.07;2.55;;;23.60;79.80;;;;;;5095108;28;20051;-66
2023/07/06 09:52:58;;;;;;;8.73;2.47;;;23.60;82.90;;;;;;5093678;28;20044;-66
2023/07/06 09:55:29;;;;;;;7.60;2.40;;;23.40;82.70;;;;;;5095378;28;20452;-68
2023/07/06 09:57:56;;;;;;;7.00;2.47;;;23.40;82.80;;;;;;5091949;28;20043;-71
2023/07/06 10:00:22;;;;;;;9.45;2.60;;;23.30;83.70;;;;;;5061792;28;20044;-66
2023/07/06 10:02:57;;;;;;;7.38;2.47;;;23.20;80.10;;;;;;5086555;28;20079;-68
2023/07/06 10:05:48;;;;;;;6.85;2.30;;;23.10;80.60;;;;;;5095834;28;20160;-69
2023/07/06 10:08:17;;;;;;;7.45;2.40;;;23.40;79.60;;;;;;5078249;28;20044;-67
2023/07/06 10:11:12;;;;;;;7.68;2.58;;;23.40;81.00;;;;;;5093321;28;20060;-68
2023/07/06 10:14:01;;;;;;;5.57;2.20;;;23.30;80.10;;;;;;5076728;28;20056;-67
2023/07/06 10:16:44;;;;;;;6.75;2.10;;;23.40;83.60;;;;;;5069359;28;20048;-69
2023/07/06 10:19:25;;;;;;;9.48;2.90;;;23.30;84.00;;;;;;5076501;28;20035;-69
2023/07/06 10:21:56;;;;;;;5.40;2.20;;;23.30;81.40;;;;;;5078062;28;20055;-66
2023/07/06 10:25:01;;;;;;;7.37;2.57;;;23.30;79.90;;;;;;5095523;28;20461;-69
2023/07/06 10:27:32;;;;;;;7.55;2.65;;;23.30;81.40;;;;;;5052904;28;20045;-68
2023/07/06 10:30:01;;;;;;;6.18;2.13;;;23.20;83.80;;;;;;5036338;28;20045;-69
2023/07/06 10:32:33;;;;;;;5.45;2.28;;;23.50;81.70;;;;;;5036375;28;20068;-68
2023/07/06 10:35:05;;;;;;;5.50;2.20;;;23.40;81.80;;;;;;5019729;28;20045;-67
2023/07/06 10:37:31;;;;;;;;;;;23.20;81.40;;;;;;5031604;28;20579;-67
2023/07/06 10:40:23;;;;;;;7.95;2.50;;;23.40;81.60;;;;;;5061089;28;19920;-65
2023/07/06 10:43:07;;;;;;;8.00;2.75;;;23.30;79.70;;;;;;5052137;28;20164;-64
2023/07/06 10:45:32;;;;;;;7.40;2.30;;;23.50;81.00;;;;;;5038142;28;20150;-61
2023/07/06 10:48:30;;;;;;;8.50;2.40;;;23.20;80.30;;;;;;5052007;28;20053;-67
2023/07/06 10:51:27;;;;;;;9.25;2.47;;;23.00;80.90;;;;;;5050692;28;20092;-67
2023/07/06 10:54:17;;;;;;;8.07;2.47;;;23.30;84.60;;;;;;5036955;28;20053;-68
2023/07/06 10:56:45;;;;;;;8.48;2.35;;;23.10;83.70;;;;;;5034406;28;20073;-67
2023/07/06 10:59:18;;;;;;;8.13;2.50;;;23.10;81.20;;;;;;5090874;28;20125;-66
2023/07/06 11:01:45;;;;;;;6.75;2.50;;;23.40;81.60;;;;;;5071688;28;20119;-67
2023/07/06 11:04:41;;;;;;;6.18;2.50;;;23.10;84.10;;;;;;5074828;28;20481;-61
2023/07/06 11:07:08;;;;;;;8.27;2.70;;;23.30;80.30;;;;;;5061829;28;20056;-66
2023/07/06 11:10:08;;;;;;;5.63;2.40;;;23.10;83.90;;;;;;5092794;28;20203;-65
2023/07/06 11:12:33;;;;;;;6.50;2.10;;;23.30;80.50;;;;;;5087106;28;20119;-68
2023/07/06 11:15:15;;;;;;;7.43;2.63;;;22.80;84.20;;;;;;5076276;28;20490;-68
2023/07/06 11:17:47;;;;;;;6.80;2.40;;;23.00;84.00;;;;;;5093269;28;20439;-68
2023/07/06 11:20:18;;;;;;;6.70;2.30;;;23.00;81.30;;;;;;5076562;28;20048;-67
2023/07/06 11:22:45;;;;;;;7.63;2.55;;;23.10;84.00;;;;;;5059382;28;20405;-66
2023/07/06 11:25:12;;;;;;;6.57;2.58;;;23.00;84.50;;;;;;5063435;28;20040;-61
2023/07/06 11:27:39;;;;;;;6.03;2.35;;;23.10;81.50;;;;;;5075356;28;20048;-64
2023/07/06 11:30:17;;;;;;;5.65;2.28;;;23.00;81.40;;;;;;5058731;28;20409;-61
2023/07/06 11:33:00;;;;;;;7.68;2.80;;;22.90;81.80;;;;;;5075436;28;20055;-61
2023/07/06 11:35:47;;;;;;;6.38;2.70;;;23.00;80.20;;;;;;5076989;28;20492;-61
2023/07/06 11:38:21;;;;;;;6.78;2.28;;;23.10;84.00;;;;;;5077167;28;20044;-61
2023/07/06 11:41:02;;;;;;;5.55;2.50;;;23.20;84.30;;;;;;5075160;28;20139;-62
2023/07/06 11:43:37;;;;;;;5.22;2.25;;;23.20;85.10;;;;;;5075499;28;20040;-60
2023/07/06 11:46:26;;;;;;;7.97;2.53;;;23.10;84.20;;;;;;5074901;28;20040;-61
2023/07/06 11:49:12;;;;;;;6.07;2.88;;;23.00;80.50;;;;;;5049717;28;20052;-61
2023/07/06 11:51:38;;;;;;;8.57;2.72;;;23.30;84.80;;;;;;5091676;28;20154;-61
2023/07/06 11:54:05;;;;;;;5.93;2.55;;;22.90;84.30;;;;;;5074265;28;20151;-62
2023/07/06 11:56:52;;;;;;;8.55;2.75;;;23.20;81.70;;;;;;5074670;28;20409;-61
2023/07/06 11:59:40;;;;;;;9.35;2.72;;;22.80;80.70;;;;;;5080583;28;20047;-65
2023/07/06 12:02:16;;;;;;;6.82;2.10;;;22.90;81.70;;;;;;5075673;28;20109;-66
2023/07/06 12:04:45;;;;;;;8.82;2.65;;;23.00;81.50;;;;;;5093517;28;20040;-66
2023/07/06 12:07:32;;;;;;;7.45;2.20;;;23.00;83.70;;;;;;5090011;28;20054;-67
2023/07/06 12:10:06;;;;;;;6.75;2.55;;;23.00;81.70;;;;;;5092664;28;20425;-62
2023/07/06 12:12:33;;;;;;;8.70;2.80;;;23.00;81.00;;;;;;5093431;28;20048;-61
2023/07/06 12:14:59;;;;;;;7.30;2.53;;;22.80;83.40;;;;;;5088380;28;20071;-60
2023/07/06 12:17:27;;;;;;;5.85;1.92;;;23.00;80.90;;;;;;5071659;28;20201;-62
2023/07/06 12:19:57;;;;;;;9.52;2.22;;;23.00;78.50;;;;;;5089621;28;20394;-65
2023/07/06 12:22:23;;;;;;;7.45;2.30;;;23.20;83.50;;;;;;5073349;28;20048;-61
2023/07/06 12:24:51;;;;;;;7.65;1.95;;;23.30;80.70;;;;;;5092702;28;20046;-62
2023/07/06 12:27:17;;;;;;;6.72;2.17;;;23.00;80.80;;;;;;5093049;28;20040;-61
2023/07/06 12:29:45;;;;;;;5.05;2.20;;;23.10;80.20;;;;;;5074485;28;20044;-62
2023/07/06 12:32:21;;;;;;;5.80;2.25;;;23.20;83.10;;;;;;5085693;28;20055;-61
2023/07/06 12:34:52;;;;;;;6.90;2.20;;;23.10;82.90;;;;;;5071690;28;20075;-62
2023/07/06 12:37:24;;;;;;;6.22;2.20;;;23.20;82.50;;;;;;5055327;28;20132;-61
2023/07/06 12:39:51;;;;;;;4.70;2.00;;;23.30;82.60;;;;;;5085141;28;20106;-61
2023/07/06 12:42:21;;;;;;;5.78;2.28;;;23.20;82.00;;;;;;5074888;28;20048;-61
2023/07/06 12:44:52;;;;;;;5.78;2.08;;;23.30;78.90;;;;;;5074960;28;20044;-61
2023/07/06 12:47:41;;;;;;;6.28;1.90;;;23.10;81.60;;;;;;5092146;28;20040;-60
2023/07/06 12:50:26;;;;;;;5.18;1.80;;;23.10;81.60;;;;;;5088293;28;20036;-62
2023/07/06 12:53:15;;;;;;;4.45;2.10;;;23.00;79.40;;;;;;5092889;28;20088;-66
2023/07/06 12:55:44;;;;;;;3.08;1.65;;;23.20;81.00;;;;;;5074120;28;20447;-61
2023/07/06 12:58:38;;;;;;;4.72;1.85;;;23.30;81.10;;;;;;5073897;28;20036;-61
2023/07/06 13:01:04;;;;;;;6.05;2.05;;;23.30;78.30;;;;;;5088106;28;20059;-61
2023/07/06 13:03:31;;;;;;;4.55;1.83;;;23.30;81.80;;;;;;5092302;28;20072;-61
2023/07/06 13:05:57;;;;;;;5.20;2.03;;;23.20;78.50;;;;;;5072923;28;20043;-67
2023/07/06 13:08:24;;;;;;;11.50;2.20;;;23.40;78.60;;;;;;5090006;28;20048;-66